sensor_id;sensor_type;location;lat;lon;timestamp;P1;durP1;ratioP1;P2;durP2;ratioP2
23001;SDS011;11667;51.706;4.856;2022-07-29T00:01:14;5.83;;;2.10;;
23001;SDS011;11667;51.706;4.856;2022-07-29T00:03:45;3.95;;;2.00;;
23001;SDS011;11667;51.706;4.856;2022-07-29T00:06:15;6.65;;;2.20;;
23001;SDS011;11667;51.706;4.856;2022-07-29T00:08:45;4.97;;;2.08;;
23001;SDS011;11667;51.706;4.856;2022-07-29T00:11:14;4.45;;;1.90;;
23001;SDS011;11667;51.706;4.856;2022-07-29T00:13:43;5.42;;;2.27;;
23001;SDS011;11667;51.706;4.856;2022-07-29T00:16:14;4.92;;;2.20;;
23001;SDS011;11667;51.706;4.856;2022-07-29T00:18:44;3.58;;;2.12;;
23001;SDS011;11667;51.706;4.856;2022-07-29T00:21:13;3.50;;;2.37;;
23001;SDS011;11667;51.706;4.856;2022-07-29T00:23:42;3.58;;;2.00;;
23001;SDS011;11667;51.706;4.856;2022-07-29T00:26:12;5.35;;;2.42;;
23001;SDS011;11667;51.706;4.856;2022-07-29T00:28:41;4.72;;;2.20;;
23001;SDS011;11667;51.706;4.856;2022-07-29T00:31:10;4.37;;;2.10;;
23001;SDS011;11667;51.706;4.856;2022-07-29T00:33:40;3.20;;;2.10;;
23001;SDS011;11667;51.706;4.856;2022-07-29T00:36:09;4.15;;;2.12;;
23001;SDS011;11667;51.706;4.856;2022-07-29T00:38:39;6.53;;;2.40;;
23001;SDS011;11667;51.706;4.856;2022-07-29T00:41:10;4.67;;;2.10;;
23001;SDS011;11667;51.706;4.856;2022-07-29T00:43:40;3.50;;;2.30;;
23001;SDS011;11667;51.706;4.856;2022-07-29T00:46:10;5.72;;;2.17;;
23001;SDS011;11667;51.706;4.856;2022-07-29T00:48:40;6.75;;;2.30;;
23001;SDS011;11667;51.706;4.856;2022-07-29T00:51:09;4.62;;;2.17;;
23001;SDS011;11667;51.706;4.856;2022-07-29T00:53:39;3.77;;;2.27;;
23001;SDS011;11667;51.706;4.856;2022-07-29T00:56:08;11.00;;;2.20;;
23001;SDS011;11667;51.706;4.856;2022-07-29T00:58:37;5.28;;;2.30;;
23001;SDS011;11667;51.706;4.856;2022-07-29T01:01:07;9.63;;;2.30;;
23001;SDS011;11667;51.706;4.856;2022-07-29T01:03:37;5.45;;;2.12;;
23001;SDS011;11667;51.706;4.856;2022-07-29T01:06:06;4.53;;;2.20;;
23001;SDS011;11667;51.706;4.856;2022-07-29T01:08:36;8.03;;;2.40;;
23001;SDS011;11667;51.706;4.856;2022-07-29T01:11:05;8.60;;;2.25;;
23001;SDS011;11667;51.706;4.856;2022-07-29T01:13:35;4.83;;;2.20;;
23001;SDS011;11667;51.706;4.856;2022-07-29T01:16:13;3.60;;;2.02;;
23001;SDS011;11667;51.706;4.856;2022-07-29T01:18:39;5.28;;;2.22;;
23001;SDS011;11667;51.706;4.856;2022-07-29T01:24:09;5.25;;;2.30;;
23001;SDS011;11667;51.706;4.856;2022-07-29T01:26:56;4.87;;;2.35;;
23001;SDS011;11667;51.706;4.856;2022-07-29T01:29:36;4.62;;;2.25;;
23001;SDS011;11667;51.706;4.856;2022-07-29T01:34:48;4.78;;;2.30;;
23001;SDS011;11667;51.706;4.856;2022-07-29T01:39:56;4.70;;;2.50;;
23001;SDS011;11667;51.706;4.856;2022-07-29T01:45:23;5.42;;;2.30;;
23001;SDS011;11667;51.706;4.856;2022-07-29T01:47:45;3.95;;;2.40;;
23001;SDS011;11667;51.706;4.856;2022-07-29T01:50:23;5.95;;;2.27;;
23001;SDS011;11667;51.706;4.856;2022-07-29T01:53:00;5.72;;;2.75;;
23001;SDS011;11667;51.706;4.856;2022-07-29T01:55:28;4.90;;;2.40;;
23001;SDS011;11667;51.706;4.856;2022-07-29T01:57:58;3.40;;;2.45;;
23001;SDS011;11667;51.706;4.856;2022-07-29T02:00:28;5.62;;;2.20;;
23001;SDS011;11667;51.706;4.856;2022-07-29T02:03:00;4.78;;;2.50;;
23001;SDS011;11667;51.706;4.856;2022-07-29T02:05:31;7.90;;;2.87;;
23001;SDS011;11667;51.706;4.856;2022-07-29T02:08:01;4.20;;;2.37;;
23001;SDS011;11667;51.706;4.856;2022-07-29T02:10:32;4.20;;;2.45;;
23001;SDS011;11667;51.706;4.856;2022-07-29T02:13:03;5.22;;;2.60;;
23001;SDS011;11667;51.706;4.856;2022-07-29T02:15:33;9.18;;;2.52;;
23001;SDS011;11667;51.706;4.856;2022-07-29T02:18:18;5.33;;;2.50;;
23001;SDS011;11667;51.706;4.856;2022-07-29T02:20:51;4.20;;;2.47;;
23001;SDS011;11667;51.706;4.856;2022-07-29T02:23:22;5.30;;;2.40;;
23001;SDS011;11667;51.706;4.856;2022-07-29T02:25:52;5.97;;;2.70;;
23001;SDS011;11667;51.706;4.856;2022-07-29T02:28:24;6.27;;;2.60;;
23001;SDS011;11667;51.706;4.856;2022-07-29T02:30:58;5.50;;;2.55;;
23001;SDS011;11667;51.706;4.856;2022-07-29T02:33:29;6.12;;;2.83;;
23001;SDS011;11667;51.706;4.856;2022-07-29T02:35:59;6.62;;;2.60;;
23001;SDS011;11667;51.706;4.856;2022-07-29T02:38:29;5.22;;;2.50;;
23001;SDS011;11667;51.706;4.856;2022-07-29T02:41:19;6.67;;;2.60;;
23001;SDS011;11667;51.706;4.856;2022-07-29T02:44:05;5.40;;;3.00;;
23001;SDS011;11667;51.706;4.856;2022-07-29T02:46:33;4.80;;;2.60;;
23001;SDS011;11667;51.706;4.856;2022-07-29T02:49:10;4.95;;;2.70;;
23001;SDS011;11667;51.706;4.856;2022-07-29T02:57:37;6.97;;;2.90;;
23001;SDS011;11667;51.706;4.856;2022-07-29T03:00:09;5.25;;;3.00;;
23001;SDS011;11667;51.706;4.856;2022-07-29T03:02:40;3.72;;;2.62;;
23001;SDS011;11667;51.706;4.856;2022-07-29T03:05:15;4.45;;;2.77;;
23001;SDS011;11667;51.706;4.856;2022-07-29T03:10:14;5.90;;;2.72;;
23001;SDS011;11667;51.706;4.856;2022-07-29T03:12:44;7.65;;;2.52;;
23001;SDS011;11667;51.706;4.856;2022-07-29T03:15:14;3.45;;;2.60;;
23001;SDS011;11667;51.706;4.856;2022-07-29T03:17:43;6.85;;;2.83;;
23001;SDS011;11667;51.706;4.856;2022-07-29T03:20:13;6.30;;;2.90;;
23001;SDS011;11667;51.706;4.856;2022-07-29T03:22:43;8.10;;;3.08;;
23001;SDS011;11667;51.706;4.856;2022-07-29T03:25:15;7.80;;;3.10;;
23001;SDS011;11667;51.706;4.856;2022-07-29T03:27:46;4.75;;;2.72;;
23001;SDS011;11667;51.706;4.856;2022-07-29T03:30:15;5.40;;;3.17;;
23001;SDS011;11667;51.706;4.856;2022-07-29T03:32:47;4.97;;;2.90;;
23001;SDS011;11667;51.706;4.856;2022-07-29T03:35:18;6.08;;;3.25;;
23001;SDS011;11667;51.706;4.856;2022-07-29T03:37:48;9.68;;;3.22;;
23001;SDS011;11667;51.706;4.856;2022-07-29T03:40:23;6.53;;;3.20;;
23001;SDS011;11667;51.706;4.856;2022-07-29T03:43:00;8.13;;;3.40;;
23001;SDS011;11667;51.706;4.856;2022-07-29T03:45:30;8.98;;;3.35;;
23001;SDS011;11667;51.706;4.856;2022-07-29T03:48:01;4.50;;;3.00;;
23001;SDS011;11667;51.706;4.856;2022-07-29T03:50:36;7.42;;;3.15;;
23001;SDS011;11667;51.706;4.856;2022-07-29T03:53:05;5.78;;;3.10;;
23001;SDS011;11667;51.706;4.856;2022-07-29T03:55:40;5.45;;;3.20;;
23001;SDS011;11667;51.706;4.856;2022-07-29T03:58:10;6.62;;;3.22;;
23001;SDS011;11667;51.706;4.856;2022-07-29T04:00:41;7.87;;;3.40;;
23001;SDS011;11667;51.706;4.856;2022-07-29T04:03:11;6.22;;;3.22;;
23001;SDS011;11667;51.706;4.856;2022-07-29T04:05:42;3.92;;;3.00;;
23001;SDS011;11667;51.706;4.856;2022-07-29T04:08:11;6.20;;;3.20;;
23001;SDS011;11667;51.706;4.856;2022-07-29T04:10:41;5.87;;;3.40;;
23001;SDS011;11667;51.706;4.856;2022-07-29T04:13:10;6.15;;;3.40;;
23001;SDS011;11667;51.706;4.856;2022-07-29T04:15:39;8.13;;;3.22;;
23001;SDS011;11667;51.706;4.856;2022-07-29T04:18:09;4.45;;;3.00;;
23001;SDS011;11667;51.706;4.856;2022-07-29T04:20:38;6.45;;;3.30;;
23001;SDS011;11667;51.706;4.856;2022-07-29T04:23:07;6.40;;;3.10;;
23001;SDS011;11667;51.706;4.856;2022-07-29T04:25:37;7.37;;;3.62;;
23001;SDS011;11667;51.706;4.856;2022-07-29T04:28:07;4.83;;;3.40;;
23001;SDS011;11667;51.706;4.856;2022-07-29T04:30:37;6.45;;;3.50;;
23001;SDS011;11667;51.706;4.856;2022-07-29T04:33:07;5.95;;;3.47;;
23001;SDS011;11667;51.706;4.856;2022-07-29T04:35:36;7.83;;;3.50;;
23001;SDS011;11667;51.706;4.856;2022-07-29T04:38:08;7.67;;;3.62;;
23001;SDS011;11667;51.706;4.856;2022-07-29T04:40:39;5.58;;;3.33;;
23001;SDS011;11667;51.706;4.856;2022-07-29T04:43:08;5.50;;;3.20;;
23001;SDS011;11667;51.706;4.856;2022-07-29T04:45:39;6.95;;;3.30;;
23001;SDS011;11667;51.706;4.856;2022-07-29T04:48:08;7.78;;;3.67;;
23001;SDS011;11667;51.706;4.856;2022-07-29T04:50:38;6.12;;;3.42;;
23001;SDS011;11667;51.706;4.856;2022-07-29T04:53:08;5.55;;;3.17;;
23001;SDS011;11667;51.706;4.856;2022-07-29T04:55:37;7.50;;;3.50;;
23001;SDS011;11667;51.706;4.856;2022-07-29T04:58:06;6.45;;;3.37;;
23001;SDS011;11667;51.706;4.856;2022-07-29T05:00:36;6.03;;;3.60;;
23001;SDS011;11667;51.706;4.856;2022-07-29T05:03:05;6.35;;;3.25;;
23001;SDS011;11667;51.706;4.856;2022-07-29T05:05:34;6.08;;;3.35;;
23001;SDS011;11667;51.706;4.856;2022-07-29T05:08:04;5.55;;;3.40;;
23001;SDS011;11667;51.706;4.856;2022-07-29T05:10:33;6.97;;;3.30;;
23001;SDS011;11667;51.706;4.856;2022-07-29T05:13:05;5.03;;;3.45;;
23001;SDS011;11667;51.706;4.856;2022-07-29T05:15:35;7.47;;;3.90;;
23001;SDS011;11667;51.706;4.856;2022-07-29T05:18:05;9.35;;;3.85;;
23001;SDS011;11667;51.706;4.856;2022-07-29T05:20:34;7.42;;;3.50;;
23001;SDS011;11667;51.706;4.856;2022-07-29T05:23:03;6.55;;;3.62;;
23001;SDS011;11667;51.706;4.856;2022-07-29T05:25:33;5.58;;;3.45;;
23001;SDS011;11667;51.706;4.856;2022-07-29T05:28:04;6.30;;;3.70;;
23001;SDS011;11667;51.706;4.856;2022-07-29T05:30:34;8.15;;;3.67;;
23001;SDS011;11667;51.706;4.856;2022-07-29T05:33:03;5.45;;;3.40;;
23001;SDS011;11667;51.706;4.856;2022-07-29T05:35:33;6.65;;;3.90;;
23001;SDS011;11667;51.706;4.856;2022-07-29T05:38:04;7.65;;;3.87;;
23001;SDS011;11667;51.706;4.856;2022-07-29T05:40:33;5.05;;;3.25;;
23001;SDS011;11667;51.706;4.856;2022-07-29T05:43:03;10.60;;;3.62;;
23001;SDS011;11667;51.706;4.856;2022-07-29T05:45:32;8.28;;;3.62;;
23001;SDS011;11667;51.706;4.856;2022-07-29T05:48:03;7.85;;;3.37;;
23001;SDS011;11667;51.706;4.856;2022-07-29T05:50:32;8.53;;;3.70;;
23001;SDS011;11667;51.706;4.856;2022-07-29T05:53:03;5.70;;;3.50;;
23001;SDS011;11667;51.706;4.856;2022-07-29T05:55:34;8.28;;;3.52;;
23001;SDS011;11667;51.706;4.856;2022-07-29T05:58:06;8.00;;;3.90;;
23001;SDS011;11667;51.706;4.856;2022-07-29T06:00:35;6.17;;;3.30;;
23001;SDS011;11667;51.706;4.856;2022-07-29T06:03:04;9.18;;;3.30;;
23001;SDS011;11667;51.706;4.856;2022-07-29T06:05:33;5.58;;;3.30;;
23001;SDS011;11667;51.706;4.856;2022-07-29T06:08:03;7.55;;;3.17;;
23001;SDS011;11667;51.706;4.856;2022-07-29T06:10:35;9.40;;;3.35;;
23001;SDS011;11667;51.706;4.856;2022-07-29T06:13:06;6.12;;;3.08;;
23001;SDS011;11667;51.706;4.856;2022-07-29T06:15:35;4.22;;;3.02;;
23001;SDS011;11667;51.706;4.856;2022-07-29T06:18:04;8.43;;;3.50;;
23001;SDS011;11667;51.706;4.856;2022-07-29T06:23:05;9.93;;;3.40;;
23001;SDS011;11667;51.706;4.856;2022-07-29T06:25:35;7.28;;;3.17;;
23001;SDS011;11667;51.706;4.856;2022-07-29T06:28:05;7.47;;;3.67;;
23001;SDS011;11667;51.706;4.856;2022-07-29T06:30:34;6.15;;;3.50;;
23001;SDS011;11667;51.706;4.856;2022-07-29T06:33:03;5.35;;;3.20;;
23001;SDS011;11667;51.706;4.856;2022-07-29T06:35:33;6.58;;;3.80;;
23001;SDS011;11667;51.706;4.856;2022-07-29T06:38:05;5.78;;;3.40;;
23001;SDS011;11667;51.706;4.856;2022-07-29T06:40:36;10.35;;;3.30;;
23001;SDS011;11667;51.706;4.856;2022-07-29T06:43:34;5.78;;;3.15;;
23001;SDS011;11667;51.706;4.856;2022-07-29T06:46:11;5.70;;;3.70;;
23001;SDS011;11667;51.706;4.856;2022-07-29T06:48:48;6.10;;;3.45;;
23001;SDS011;11667;51.706;4.856;2022-07-29T06:51:17;6.10;;;3.50;;
23001;SDS011;11667;51.706;4.856;2022-07-29T06:53:49;7.05;;;3.65;;
23001;SDS011;11667;51.706;4.856;2022-07-29T06:56:21;8.50;;;3.20;;
23001;SDS011;11667;51.706;4.856;2022-07-29T06:58:51;7.97;;;3.30;;
23001;SDS011;11667;51.706;4.856;2022-07-29T07:01:20;5.70;;;3.05;;
23001;SDS011;11667;51.706;4.856;2022-07-29T07:03:50;75.30;;;6.08;;
23001;SDS011;11667;51.706;4.856;2022-07-29T07:06:19;8.18;;;3.65;;
23001;SDS011;11667;51.706;4.856;2022-07-29T07:08:48;6.42;;;3.58;;
23001;SDS011;11667;51.706;4.856;2022-07-29T07:11:17;7.50;;;3.60;;
23001;SDS011;11667;51.706;4.856;2022-07-29T07:13:47;6.08;;;3.65;;
23001;SDS011;11667;51.706;4.856;2022-07-29T07:16:16;5.87;;;3.40;;
23001;SDS011;11667;51.706;4.856;2022-07-29T07:18:46;8.70;;;3.90;;
23001;SDS011;11667;51.706;4.856;2022-07-29T07:21:15;5.95;;;3.50;;
23001;SDS011;11667;51.706;4.856;2022-07-29T07:23:46;6.87;;;3.75;;
23001;SDS011;11667;51.706;4.856;2022-07-29T07:26:15;6.00;;;3.60;;
23001;SDS011;11667;51.706;4.856;2022-07-29T07:28:44;7.15;;;3.55;;
23001;SDS011;11667;51.706;4.856;2022-07-29T07:31:14;10.38;;;3.60;;
23001;SDS011;11667;51.706;4.856;2022-07-29T07:33:43;6.50;;;3.83;;
23001;SDS011;11667;51.706;4.856;2022-07-29T07:36:12;6.12;;;3.62;;
23001;SDS011;11667;51.706;4.856;2022-07-29T07:38:42;6.40;;;3.47;;
23001;SDS011;11667;51.706;4.856;2022-07-29T07:41:11;6.65;;;3.83;;
23001;SDS011;11667;51.706;4.856;2022-07-29T07:43:40;8.68;;;3.90;;
23001;SDS011;11667;51.706;4.856;2022-07-29T07:46:10;5.60;;;3.60;;
23001;SDS011;11667;51.706;4.856;2022-07-29T07:48:40;10.00;;;3.70;;
23001;SDS011;11667;51.706;4.856;2022-07-29T07:51:09;5.65;;;3.72;;
23001;SDS011;11667;51.706;4.856;2022-07-29T07:53:39;5.62;;;3.60;;
23001;SDS011;11667;51.706;4.856;2022-07-29T07:56:08;10.30;;;3.60;;
23001;SDS011;11667;51.706;4.856;2022-07-29T07:58:39;4.75;;;3.65;;
23001;SDS011;11667;51.706;4.856;2022-07-29T08:01:09;5.35;;;3.70;;
23001;SDS011;11667;51.706;4.856;2022-07-29T08:03:38;4.95;;;3.75;;
23001;SDS011;11667;51.706;4.856;2022-07-29T08:06:08;8.33;;;4.10;;
23001;SDS011;11667;51.706;4.856;2022-07-29T08:08:37;8.75;;;3.65;;
23001;SDS011;11667;51.706;4.856;2022-07-29T08:11:06;6.85;;;4.00;;
23001;SDS011;11667;51.706;4.856;2022-07-29T08:13:37;7.30;;;3.70;;
23001;SDS011;11667;51.706;4.856;2022-07-29T08:16:07;7.10;;;3.60;;
23001;SDS011;11667;51.706;4.856;2022-07-29T08:18:41;5.33;;;3.58;;
23001;SDS011;11667;51.706;4.856;2022-07-29T08:21:11;6.03;;;4.00;;
23001;SDS011;11667;51.706;4.856;2022-07-29T08:23:43;6.42;;;3.90;;
23001;SDS011;11667;51.706;4.856;2022-07-29T08:26:15;6.28;;;3.75;;
23001;SDS011;11667;51.706;4.856;2022-07-29T08:28:44;9.00;;;3.60;;
23001;SDS011;11667;51.706;4.856;2022-07-29T08:31:16;6.47;;;3.60;;
23001;SDS011;11667;51.706;4.856;2022-07-29T08:33:45;5.12;;;3.52;;
23001;SDS011;11667;51.706;4.856;2022-07-29T08:36:15;5.50;;;3.40;;
23001;SDS011;11667;51.706;4.856;2022-07-29T08:38:44;7.12;;;3.55;;
23001;SDS011;11667;51.706;4.856;2022-07-29T08:41:13;8.15;;;3.22;;
23001;SDS011;11667;51.706;4.856;2022-07-29T08:43:44;5.78;;;3.55;;
23001;SDS011;11667;51.706;4.856;2022-07-29T08:46:14;6.87;;;3.50;;
23001;SDS011;11667;51.706;4.856;2022-07-29T08:48:45;4.80;;;3.10;;
23001;SDS011;11667;51.706;4.856;2022-07-29T08:51:18;7.45;;;3.45;;
23001;SDS011;11667;51.706;4.856;2022-07-29T08:53:49;7.65;;;3.70;;
23001;SDS011;11667;51.706;4.856;2022-07-29T08:56:19;9.45;;;3.77;;
23001;SDS011;11667;51.706;4.856;2022-07-29T08:58:48;8.25;;;3.67;;
23001;SDS011;11667;51.706;4.856;2022-07-29T09:01:23;7.97;;;3.58;;
23001;SDS011;11667;51.706;4.856;2022-07-29T09:03:55;8.00;;;3.60;;
23001;SDS011;11667;51.706;4.856;2022-07-29T09:06:25;7.35;;;3.37;;
23001;SDS011;11667;51.706;4.856;2022-07-29T09:08:59;11.38;;;3.50;;
23001;SDS011;11667;51.706;4.856;2022-07-29T09:11:29;9.63;;;3.40;;
23001;SDS011;11667;51.706;4.856;2022-07-29T09:13:59;6.75;;;3.50;;
23001;SDS011;11667;51.706;4.856;2022-07-29T09:19:28;6.97;;;3.83;;
23001;SDS011;11667;51.706;4.856;2022-07-29T09:22:00;5.33;;;3.58;;
23001;SDS011;11667;51.706;4.856;2022-07-29T09:27:12;7.50;;;3.25;;
23001;SDS011;11667;51.706;4.856;2022-07-29T09:30:03;7.35;;;3.65;;
23001;SDS011;11667;51.706;4.856;2022-07-29T09:32:28;7.40;;;3.35;;
23001;SDS011;11667;51.706;4.856;2022-07-29T09:35:14;6.92;;;3.55;;
23001;SDS011;11667;51.706;4.856;2022-07-29T09:37:47;5.67;;;3.10;;
23001;SDS011;11667;51.706;4.856;2022-07-29T09:40:23;6.97;;;3.17;;
23001;SDS011;11667;51.706;4.856;2022-07-29T09:42:50;8.25;;;3.67;;
23001;SDS011;11667;51.706;4.856;2022-07-29T09:45:28;9.35;;;3.65;;
23001;SDS011;11667;51.706;4.856;2022-07-29T09:48:00;4.40;;;3.27;;
23001;SDS011;11667;51.706;4.856;2022-07-29T09:50:48;7.17;;;3.08;;
23001;SDS011;11667;51.706;4.856;2022-07-29T09:53:38;7.03;;;3.40;;
23001;SDS011;11667;51.706;4.856;2022-07-29T09:56:07;6.28;;;3.20;;
23001;SDS011;11667;51.706;4.856;2022-07-29T09:58:38;7.60;;;2.92;;
23001;SDS011;11667;51.706;4.856;2022-07-29T10:01:07;7.80;;;2.90;;
23001;SDS011;11667;51.706;4.856;2022-07-29T10:03:50;12.03;;;3.17;;
23001;SDS011;11667;51.706;4.856;2022-07-29T10:06:21;8.60;;;2.40;;
23001;SDS011;11667;51.706;4.856;2022-07-29T10:08:51;4.53;;;2.90;;
23001;SDS011;11667;51.706;4.856;2022-07-29T10:11:20;5.55;;;2.60;;
23001;SDS011;11667;51.706;4.856;2022-07-29T10:13:50;3.92;;;2.40;;
23001;SDS011;11667;51.706;4.856;2022-07-29T10:16:19;5.70;;;2.35;;
23001;SDS011;11667;51.706;4.856;2022-07-29T10:18:48;75.08;;;5.15;;
23001;SDS011;11667;51.706;4.856;2022-07-29T10:21:19;4.70;;;2.20;;
23001;SDS011;11667;51.706;4.856;2022-07-29T10:23:50;5.60;;;2.52;;
23001;SDS011;11667;51.706;4.856;2022-07-29T10:26:22;4.60;;;2.45;;
23001;SDS011;11667;51.706;4.856;2022-07-29T10:28:52;6.50;;;2.40;;
23001;SDS011;11667;51.706;4.856;2022-07-29T10:31:24;4.55;;;2.65;;
23001;SDS011;11667;51.706;4.856;2022-07-29T10:36:54;4.42;;;2.42;;
23001;SDS011;11667;51.706;4.856;2022-07-29T10:39:27;3.83;;;2.40;;
23001;SDS011;11667;51.706;4.856;2022-07-29T10:42:25;6.58;;;2.72;;
23001;SDS011;11667;51.706;4.856;2022-07-29T10:44:53;2.70;;;2.10;;
23001;SDS011;11667;51.706;4.856;2022-07-29T10:47:23;5.90;;;2.40;;
23001;SDS011;11667;51.706;4.856;2022-07-29T10:52:23;5.62;;;2.30;;
23001;SDS011;11667;51.706;4.856;2022-07-29T10:54:56;3.60;;;1.90;;
23001;SDS011;11667;51.706;4.856;2022-07-29T10:57:29;6.70;;;2.37;;
23001;SDS011;11667;51.706;4.856;2022-07-29T11:05:11;3.65;;;2.12;;
23001;SDS011;11667;51.706;4.856;2022-07-29T11:10:41;4.05;;;2.15;;
23001;SDS011;11667;51.706;4.856;2022-07-29T11:13:11;6.10;;;2.10;;
23001;SDS011;11667;51.706;4.856;2022-07-29T11:15:52;7.42;;;2.37;;
23001;SDS011;11667;51.706;4.856;2022-07-29T11:18:23;5.00;;;2.40;;
23001;SDS011;11667;51.706;4.856;2022-07-29T11:20:52;5.35;;;2.17;;
23001;SDS011;11667;51.706;4.856;2022-07-29T11:23:24;6.45;;;2.15;;
23001;SDS011;11667;51.706;4.856;2022-07-29T11:31:45;6.37;;;1.85;;
23001;SDS011;11667;51.706;4.856;2022-07-29T11:34:27;6.17;;;1.90;;
23001;SDS011;11667;51.706;4.856;2022-07-29T11:39:42;4.17;;;1.70;;
23001;SDS011;11667;51.706;4.856;2022-07-29T11:44:57;3.30;;;1.92;;
23001;SDS011;11667;51.706;4.856;2022-07-29T11:47:37;5.20;;;2.00;;
23001;SDS011;11667;51.706;4.856;2022-07-29T11:50:10;5.53;;;2.00;;
23001;SDS011;11667;51.706;4.856;2022-07-29T11:52:43;4.37;;;1.90;;
23001;SDS011;11667;51.706;4.856;2022-07-29T11:55:17;5.03;;;1.90;;
23001;SDS011;11667;51.706;4.856;2022-07-29T11:57:49;6.17;;;1.67;;
23001;SDS011;11667;51.706;4.856;2022-07-29T12:00:31;17.40;;;2.17;;
23001;SDS011;11667;51.706;4.856;2022-07-29T12:03:04;8.45;;;1.92;;
23001;SDS011;11667;51.706;4.856;2022-07-29T12:05:39;4.55;;;1.40;;
23001;SDS011;11667;51.706;4.856;2022-07-29T12:08:17;36.30;;;2.47;;
23001;SDS011;11667;51.706;4.856;2022-07-29T12:10:46;5.30;;;2.10;;
23001;SDS011;11667;51.706;4.856;2022-07-29T12:13:23;5.20;;;1.90;;
23001;SDS011;11667;51.706;4.856;2022-07-29T12:15:52;5.33;;;1.82;;
23001;SDS011;11667;51.706;4.856;2022-07-29T12:18:26;3.50;;;1.70;;
23001;SDS011;11667;51.706;4.856;2022-07-29T12:20:59;3.92;;;1.57;;
23001;SDS011;11667;51.706;4.856;2022-07-29T12:23:32;4.50;;;1.52;;
23001;SDS011;11667;51.706;4.856;2022-07-29T12:26:05;4.30;;;1.62;;
23001;SDS011;11667;51.706;4.856;2022-07-29T12:28:42;5.95;;;1.72;;
23001;SDS011;11667;51.706;4.856;2022-07-29T12:31:14;8.03;;;1.82;;
23001;SDS011;11667;51.706;4.856;2022-07-29T12:33:51;4.30;;;1.60;;
23001;SDS011;11667;51.706;4.856;2022-07-29T12:36:18;5.17;;;1.50;;
23001;SDS011;11667;51.706;4.856;2022-07-29T12:38:47;3.50;;;1.40;;
23001;SDS011;11667;51.706;4.856;2022-07-29T12:41:18;3.45;;;1.60;;
23001;SDS011;11667;51.706;4.856;2022-07-29T12:43:52;4.97;;;1.77;;
23001;SDS011;11667;51.706;4.856;2022-07-29T12:46:21;3.77;;;1.60;;
23001;SDS011;11667;51.706;4.856;2022-07-29T12:48:51;3.50;;;1.40;;
23001;SDS011;11667;51.706;4.856;2022-07-29T12:51:32;4.95;;;1.50;;
23001;SDS011;11667;51.706;4.856;2022-07-29T12:54:05;6.83;;;1.65;;
23001;SDS011;11667;51.706;4.856;2022-07-29T12:56:36;4.15;;;1.72;;
23001;SDS011;11667;51.706;4.856;2022-07-29T12:59:11;4.80;;;1.40;;
23001;SDS011;11667;51.706;4.856;2022-07-29T13:01:44;5.17;;;1.55;;
23001;SDS011;11667;51.706;4.856;2022-07-29T13:04:33;5.17;;;1.85;;
23001;SDS011;11667;51.706;4.856;2022-07-29T13:06:59;4.97;;;1.77;;
23001;SDS011;11667;51.706;4.856;2022-07-29T13:09:38;5.15;;;1.77;;
23001;SDS011;11667;51.706;4.856;2022-07-29T13:12:12;4.08;;;1.90;;
23001;SDS011;11667;51.706;4.856;2022-07-29T13:14:43;6.10;;;1.57;;
23001;SDS011;11667;51.706;4.856;2022-07-29T13:17:24;4.75;;;1.67;;
23001;SDS011;11667;51.706;4.856;2022-07-29T13:20:05;3.77;;;1.60;;
23001;SDS011;11667;51.706;4.856;2022-07-29T13:22:38;4.20;;;2.20;;
23001;SDS011;11667;51.706;4.856;2022-07-29T13:25:08;3.05;;;1.77;;
23001;SDS011;11667;51.706;4.856;2022-07-29T13:27:38;6.03;;;1.75;;
23001;SDS011;11667;51.706;4.856;2022-07-29T13:30:08;5.03;;;1.85;;
23001;SDS011;11667;51.706;4.856;2022-07-29T13:32:38;3.40;;;2.00;;
23001;SDS011;11667;51.706;4.856;2022-07-29T13:35:08;5.20;;;2.00;;
23001;SDS011;11667;51.706;4.856;2022-07-29T13:37:37;5.20;;;1.92;;
23001;SDS011;11667;51.706;4.856;2022-07-29T13:40:07;5.12;;;1.90;;
23001;SDS011;11667;51.706;4.856;2022-07-29T13:42:37;5.25;;;2.40;;
23001;SDS011;11667;51.706;4.856;2022-07-29T13:45:07;6.30;;;2.17;;
23001;SDS011;11667;51.706;4.856;2022-07-29T13:47:38;9.93;;;2.23;;
23001;SDS011;11667;51.706;4.856;2022-07-29T13:50:10;6.83;;;2.02;;
23001;SDS011;11667;51.706;4.856;2022-07-29T13:52:39;6.40;;;2.17;;
23001;SDS011;11667;51.706;4.856;2022-07-29T13:55:08;3.27;;;1.80;;
23001;SDS011;11667;51.706;4.856;2022-07-29T13:57:38;6.22;;;2.80;;
23001;SDS011;11667;51.706;4.856;2022-07-29T14:00:07;3.60;;;2.08;;
23001;SDS011;11667;51.706;4.856;2022-07-29T14:02:38;4.20;;;2.40;;
23001;SDS011;11667;51.706;4.856;2022-07-29T14:05:07;5.78;;;2.30;;
23001;SDS011;11667;51.706;4.856;2022-07-29T14:07:37;6.30;;;2.22;;
23001;SDS011;11667;51.706;4.856;2022-07-29T14:10:07;3.98;;;2.45;;
23001;SDS011;11667;51.706;4.856;2022-07-29T14:12:37;7.40;;;2.45;;
23001;SDS011;11667;51.706;4.856;2022-07-29T14:15:08;7.30;;;2.83;;
23001;SDS011;11667;51.706;4.856;2022-07-29T14:17:38;4.42;;;2.40;;
23001;SDS011;11667;51.706;4.856;2022-07-29T14:20:07;6.37;;;2.50;;
23001;SDS011;11667;51.706;4.856;2022-07-29T14:22:37;4.15;;;2.42;;
23001;SDS011;11667;51.706;4.856;2022-07-29T14:25:08;4.67;;;2.00;;
23001;SDS011;11667;51.706;4.856;2022-07-29T14:27:39;5.83;;;2.30;;
23001;SDS011;11667;51.706;4.856;2022-07-29T14:30:09;5.20;;;2.30;;
23001;SDS011;11667;51.706;4.856;2022-07-29T14:32:38;5.92;;;2.40;;
23001;SDS011;11667;51.706;4.856;2022-07-29T14:35:08;4.80;;;2.20;;
23001;SDS011;11667;51.706;4.856;2022-07-29T14:37:40;6.25;;;2.25;;
23001;SDS011;11667;51.706;4.856;2022-07-29T14:40:10;5.53;;;2.40;;
23001;SDS011;11667;51.706;4.856;2022-07-29T14:42:39;7.65;;;2.58;;
23001;SDS011;11667;51.706;4.856;2022-07-29T14:45:09;6.62;;;2.60;;
23001;SDS011;11667;51.706;4.856;2022-07-29T14:47:38;5.92;;;2.60;;
23001;SDS011;11667;51.706;4.856;2022-07-29T14:50:08;7.35;;;2.50;;
23001;SDS011;11667;51.706;4.856;2022-07-29T14:52:37;6.50;;;2.67;;
23001;SDS011;11667;51.706;4.856;2022-07-29T14:55:07;6.42;;;2.52;;
23001;SDS011;11667;51.706;4.856;2022-07-29T14:57:38;7.78;;;2.30;;
23001;SDS011;11667;51.706;4.856;2022-07-29T15:00:08;10.13;;;3.12;;
23001;SDS011;11667;51.706;4.856;2022-07-29T15:02:38;6.67;;;2.98;;
23001;SDS011;11667;51.706;4.856;2022-07-29T15:05:09;7.65;;;2.90;;
23001;SDS011;11667;51.706;4.856;2022-07-29T15:07:39;6.42;;;2.70;;
23001;SDS011;11667;51.706;4.856;2022-07-29T15:10:08;8.70;;;2.50;;
23001;SDS011;11667;51.706;4.856;2022-07-29T15:12:39;6.62;;;2.58;;
23001;SDS011;11667;51.706;4.856;2022-07-29T15:15:09;8.65;;;3.83;;
23001;SDS011;11667;51.706;4.856;2022-07-29T15:17:39;9.48;;;4.58;;
23001;SDS011;11667;51.706;4.856;2022-07-29T15:20:10;6.17;;;4.15;;
23001;SDS011;11667;51.706;4.856;2022-07-29T15:22:39;7.28;;;3.58;;
23001;SDS011;11667;51.706;4.856;2022-07-29T15:25:10;8.30;;;3.58;;
23001;SDS011;11667;51.706;4.856;2022-07-29T15:27:40;7.12;;;3.05;;
23001;SDS011;11667;51.706;4.856;2022-07-29T15:30:11;9.23;;;3.20;;
23001;SDS011;11667;51.706;4.856;2022-07-29T15:32:44;4.55;;;2.60;;
23001;SDS011;11667;51.706;4.856;2022-07-29T15:35:13;6.00;;;2.42;;
23001;SDS011;11667;51.706;4.856;2022-07-29T15:37:42;5.28;;;2.25;;
23001;SDS011;11667;51.706;4.856;2022-07-29T15:40:14;4.33;;;2.17;;
23001;SDS011;11667;51.706;4.856;2022-07-29T15:42:43;3.85;;;2.27;;
23001;SDS011;11667;51.706;4.856;2022-07-29T15:45:12;3.75;;;2.25;;
23001;SDS011;11667;51.706;4.856;2022-07-29T15:47:43;6.95;;;2.27;;
23001;SDS011;11667;51.706;4.856;2022-07-29T15:50:13;7.15;;;2.35;;
23001;SDS011;11667;51.706;4.856;2022-07-29T15:52:43;7.40;;;2.60;;
23001;SDS011;11667;51.706;4.856;2022-07-29T15:55:13;5.78;;;2.30;;
23001;SDS011;11667;51.706;4.856;2022-07-29T15:57:43;5.72;;;2.15;;
23001;SDS011;11667;51.706;4.856;2022-07-29T16:00:12;6.22;;;2.98;;
23001;SDS011;11667;51.706;4.856;2022-07-29T16:02:43;7.50;;;3.10;;
23001;SDS011;11667;51.706;4.856;2022-07-29T16:05:13;5.60;;;2.90;;